createdAt,value
2019-03-31T00:03:59.040Z,88.80
2019-03-31T00:09:06.861Z,88.67
2019-03-31T00:14:13.069Z,89.17
2019-03-31T00:19:19.340Z,89.04
2019-03-31T00:24:25.583Z,89.07
2019-03-31T00:29:31.818Z,89.70
2019-03-31T00:34:38.019Z,89.35
2019-03-31T00:39:44.020Z,89.95
2019-03-31T00:44:50.100Z,89.91
2019-03-31T00:49:56.400Z,90.23
2019-03-31T00:55:02.480Z,90.62
2019-03-31T01:00:11.040Z,90.33
2019-03-31T01:05:17.599Z,90.46
2019-03-31T01:10:24.020Z,90.90
2019-03-31T01:15:30.843Z,90.56
2019-03-31T01:20:37.232Z,89.97
2019-03-31T01:25:43.461Z,89.44
2019-03-31T01:30:49.939Z,90.08
2019-03-31T01:35:56.002Z,90.92
2019-03-31T01:41:02.141Z,91.02
2019-03-31T01:46:09.900Z,91.19
2019-03-31T01:51:16.137Z,90.62
2019-03-31T01:56:23.159Z,91.15
2019-03-31T02:01:29.210Z,91.94
2019-03-31T02:06:35.566Z,92.36
2019-03-31T02:11:41.658Z,92.95
2019-03-31T02:16:47.770Z,93.26
2019-03-31T02:21:53.774Z,93.36
2019-03-31T02:27:00.201Z,93.44
2019-03-31T02:32:22.612Z,93.50
2019-03-31T02:37:14.127Z,93.58
2019-03-31T02:42:20.168Z,93.31
2019-03-31T02:47:26.256Z,93.20
2019-03-31T02:52:32.260Z,93.64
2019-03-31T02:57:39.856Z,93.82
2019-03-31T03:02:47.451Z,94.21
2019-03-31T03:07:54.478Z,94.50
2019-03-31T03:13:03.430Z,94.44
2019-03-31T03:18:09.595Z,94.52
2019-03-31T03:23:15.729Z,94.82
2019-03-31T03:28:21.778Z,95.08
2019-03-31T03:33:27.810Z,95.22
2019-03-31T03:38:33.896Z,94.66
2019-03-31T03:43:54.290Z,94.47
2019-03-31T03:48:47.879Z,93.39
2019-03-31T03:53:53.930Z,92.63
2019-03-31T03:58:59.816Z,92.45
2019-03-31T04:04:05.813Z,93.31
2019-03-31T04:09:11.887Z,93.82
2019-03-31T04:14:17.999Z,93.89
2019-03-31T04:19:23.987Z,93.95
2019-03-31T04:24:30.039Z,93.93
2019-03-31T04:29:36.116Z,93.14
2019-03-31T04:34:42.138Z,92.50
2019-03-31T04:39:48.128Z,92.75
2019-03-31T04:44:54.209Z,92.76
2019-03-31T04:50:00.378Z,92.65
2019-03-31T04:55:06.677Z,93.60
2019-03-31T05:00:12.686Z,92.99
2019-03-31T05:05:18.731Z,91.95
2019-03-31T05:10:24.824Z,91.08
2019-03-31T05:15:30.922Z,92.07
2019-03-31T05:20:36.894Z,91.67
2019-03-31T05:25:42.942Z,90.85
2019-03-31T05:30:48.907Z,91.56
2019-03-31T05:35:55.032Z,91.93
2019-03-31T05:41:01.302Z,91.82
2019-03-31T05:46:07.307Z,90.38
2019-03-31T05:51:13.262Z,89.75
2019-03-31T05:56:20.026Z,90.19
2019-03-31T06:01:26.163Z,89.22
2019-03-31T06:06:32.266Z,89.34
2019-03-31T06:11:38.168Z,89.10
2019-03-31T06:16:44.228Z,88.95
2019-03-31T06:21:50.322Z,88.53
2019-03-31T06:26:56.492Z,88.66
2019-03-31T06:32:02.493Z,89.45
2019-03-31T06:37:08.542Z,89.68
2019-03-31T06:42:14.653Z,89.23
2019-03-31T06:47:20.623Z,89.08
2019-03-31T06:52:26.887Z,89.36
2019-03-31T06:57:32.852Z,89.72
2019-03-31T07:02:38.829Z,91.34
2019-03-31T07:07:44.882Z,91.39
2019-03-31T07:12:50.892Z,90.81
2019-03-31T07:17:56.921Z,90.13
2019-03-31T07:23:02.937Z,89.58
2019-03-31T07:28:09.171Z,88.75
2019-03-31T07:33:15.146Z,87.79
2019-03-31T07:38:21.291Z,86.27
2019-03-31T07:43:27.441Z,84.25
2019-03-31T07:48:33.526Z,84.25
2019-03-31T07:53:39.506Z,82.25
2019-03-31T07:58:45.705Z,81.29
2019-03-31T08:03:51.821Z,81.72
2019-03-31T08:08:58.206Z,81.54
2019-03-31T08:14:04.648Z,82.07
2019-03-31T08:19:10.706Z,82.57
2019-03-31T08:24:16.631Z,82.21
2019-03-31T08:29:22.627Z,81.75
2019-03-31T08:34:28.859Z,81.50
2019-03-31T08:39:34.982Z,80.92
2019-03-31T08:44:41.007Z,79.86
2019-03-31T08:49:46.955Z,77.72
2019-03-31T08:54:52.982Z,77.31
2019-03-31T08:59:58.976Z,75.44
2019-03-31T09:05:06.177Z,74.10
2019-03-31T09:10:12.554Z,71.34
2019-03-31T09:15:18.565Z,67.33
2019-03-31T09:20:24.552Z,64.32
2019-03-31T09:25:30.521Z,59.44
2019-03-31T09:30:36.496Z,56.03
2019-03-31T09:35:42.572Z,53.51
2019-03-31T09:40:48.664Z,51.43
2019-03-31T09:45:54.567Z,51.07
2019-03-31T09:51:00.617Z,52.60
2019-03-31T09:56:06.681Z,51.29
2019-03-31T10:01:13.141Z,49.45
2019-03-31T10:06:29.538Z,51.35
2019-03-31T10:11:27.129Z,48.21
2019-03-31T10:16:33.191Z,50.27
2019-03-31T10:21:39.249Z,49.45
2019-03-31T10:26:45.252Z,47.78
2019-03-31T10:31:51.665Z,46.52
2019-03-31T10:36:57.687Z,46.33
2019-03-31T10:42:03.694Z,48.00
2019-03-31T10:47:09.747Z,47.45
2019-03-31T10:52:15.921Z,47.26
2019-03-31T10:57:22.046Z,47.83
2019-03-31T11:02:28.032Z,47.10
2019-03-31T11:07:34.076Z,46.50
2019-03-31T11:12:40.166Z,44.95
2019-03-31T11:17:46.106Z,43.42
2019-03-31T11:22:56.969Z,45.39
2019-03-31T11:28:03.101Z,43.84
2019-03-31T11:33:09.378Z,43.54
2019-03-31T11:38:16.337Z,42.63
2019-03-31T11:43:22.601Z,44.17
2019-03-31T11:48:29.269Z,45.38
2019-03-31T11:53:35.399Z,49.02
2019-03-31T11:58:41.600Z,46.27
2019-03-31T12:03:48.209Z,47.74
2019-03-31T12:08:54.332Z,48.42
2019-03-31T12:14:00.451Z,48.17
2019-03-31T12:19:06.660Z,49.39
2019-03-31T12:24:12.734Z,47.77
2019-03-31T12:29:19.199Z,48.55
2019-03-31T12:34:26.430Z,49.45
2019-03-31T12:39:33.017Z,50.20
2019-03-31T12:44:39.201Z,50.21
2019-03-31T12:49:45.400Z,50.87
2019-03-31T12:54:51.561Z,52.85
2019-03-31T12:59:57.615Z,52.28
2019-03-31T13:05:04.279Z,53.38
2019-03-31T13:10:10.620Z,53.09
2019-03-31T13:15:16.700Z,54.20
2019-03-31T13:20:23.221Z,54.49
2019-03-31T13:25:29.340Z,56.65
2019-03-31T13:30:35.382Z,56.56
2019-03-31T13:35:41.592Z,57.85
2019-03-31T13:40:50.459Z,58.46
2019-03-31T13:45:56.134Z,58.58
2019-03-31T13:51:02.353Z,58.90
2019-03-31T13:56:08.615Z,58.09
2019-03-31T14:01:14.802Z,57.85
2019-03-31T14:06:21.237Z,59.45
2019-03-31T14:11:27.243Z,58.31
2019-03-31T14:16:35.702Z,59.29
2019-03-31T14:21:41.953Z,59.98
2019-03-31T14:26:48.121Z,59.18
2019-03-31T14:31:54.658Z,61.22
2019-03-31T14:37:00.845Z,62.03
2019-03-31T14:42:07.142Z,62.18
2019-03-31T14:47:13.702Z,61.69
2019-03-31T14:52:27.260Z,61.02
2019-03-31T14:57:27.823Z,63.21
2019-03-31T15:02:33.961Z,64.34
2019-03-31T15:07:40.081Z,64.34
2019-03-31T15:12:46.442Z,64.61
2019-03-31T15:17:52.622Z,64.29
2019-03-31T15:22:59.181Z,64.57
2019-03-31T15:28:05.751Z,64.32
2019-03-31T15:33:11.881Z,64.43
2019-03-31T15:38:17.972Z,65.21
2019-03-31T15:43:24.042Z,65.19
2019-03-31T15:48:30.220Z,65.55
2019-03-31T15:53:36.454Z,65.64
2019-03-31T15:58:42.585Z,66.03
2019-03-31T16:03:48.861Z,66.55
2019-03-31T16:08:54.361Z,67.49
2019-03-31T16:14:00.281Z,67.27
2019-03-31T16:19:05.958Z,68.21
2019-03-31T16:24:11.661Z,68.37
2019-03-31T16:29:17.401Z,69.38
2019-03-31T16:34:22.900Z,69.45
2019-03-31T16:39:37.535Z,69.97
2019-03-31T16:44:35.732Z,69.87
2019-03-31T16:49:41.313Z,70.99
2019-03-31T16:54:46.945Z,71.75
2019-03-31T16:59:52.551Z,72.05
2019-03-31T17:04:58.186Z,71.99
2019-03-31T17:10:04.005Z,72.30
2019-03-31T17:15:09.986Z,72.83
2019-03-31T17:20:17.813Z,73.73
2019-03-31T17:25:23.246Z,74.23
2019-03-31T17:30:28.985Z,74.41
2019-03-31T17:35:34.461Z,74.46
2019-03-31T17:40:39.831Z,74.65
2019-03-31T17:45:47.982Z,74.92
2019-03-31T17:50:54.527Z,75.30
2019-03-31T17:56:00.549Z,75.46
2019-03-31T18:01:06.285Z,75.27
2019-03-31T18:06:12.927Z,75.58
2019-03-31T18:11:18.867Z,75.96
2019-03-31T18:16:25.307Z,76.34
2019-03-31T18:21:30.986Z,76.75
2019-03-31T18:26:36.801Z,77.05
2019-03-31T18:31:42.347Z,77.37
2019-03-31T18:36:47.870Z,77.57
2019-03-31T18:41:53.586Z,77.75
2019-03-31T18:46:59.148Z,78.02
2019-03-31T18:52:04.626Z,78.28
2019-03-31T18:57:18.098Z,78.48
2019-03-31T19:02:32.006Z,78.78
2019-03-31T19:07:47.249Z,79.30
2019-03-31T19:13:06.352Z,79.68
2019-03-31T19:18:20.208Z,79.77
2019-03-31T19:23:34.089Z,79.66
2019-03-31T19:28:54.681Z,79.92
2019-03-31T19:34:07.987Z,80.01
2019-03-31T19:39:24.507Z,80.00
2019-03-31T19:44:48.829Z,80.12
2019-03-31T19:50:03.267Z,80.21
2019-03-31T19:55:17.687Z,80.16
2019-03-31T20:00:33.459Z,80.34
2019-03-31T20:05:48.586Z,80.82
2019-03-31T20:11:01.967Z,81.50
2019-03-31T20:16:26.366Z,81.87
2019-03-31T20:21:47.227Z,81.67
2019-03-31T20:26:59.552Z,81.71
2019-03-31T20:32:15.877Z,81.62
2019-03-31T20:37:40.249Z,81.62
2019-03-31T20:43:03.065Z,81.84
2019-03-31T20:48:08.546Z,81.71
2019-03-31T20:53:14.149Z,82.37
2019-03-31T20:58:19.888Z,82.82
2019-03-31T21:03:26.199Z,83.45
2019-03-31T21:08:31.686Z,83.89
2019-03-31T21:13:37.472Z,84.72
2019-03-31T21:18:43.287Z,85.26
2019-03-31T21:23:48.749Z,86.11
2019-03-31T21:28:54.346Z,86.43
2019-03-31T21:34:00.267Z,87.00
2019-03-31T21:39:08.169Z,87.42
2019-03-31T21:44:13.967Z,87.29
2019-03-31T21:49:19.467Z,87.75
2019-03-31T21:54:24.925Z,88.06
2019-03-31T21:59:33.372Z,88.11
2019-03-31T22:04:37.778Z,88.34
2019-03-31T22:09:43.397Z,88.50
2019-03-31T22:14:49.045Z,88.72
2019-03-31T22:19:54.638Z,88.81
2019-03-31T22:25:00.411Z,89.14
2019-03-31T22:30:06.769Z,88.96
2019-03-31T22:35:12.207Z,89.34
2019-03-31T22:40:17.770Z,89.31
2019-03-31T22:45:23.388Z,89.15
2019-03-31T22:50:28.868Z,89.26
2019-03-31T22:55:34.346Z,89.16
2019-03-31T23:00:40.014Z,89.44
2019-03-31T23:05:45.526Z,89.75
2019-03-31T23:10:51.481Z,89.78
2019-03-31T23:15:57.146Z,90.20
2019-03-31T23:21:02.626Z,90.52
2019-03-31T23:26:08.079Z,90.46
2019-03-31T23:31:13.679Z,90.80
2019-03-31T23:36:19.158Z,91.20
2019-03-31T23:41:25.193Z,91.44
2019-03-31T23:46:30.765Z,91.54
2019-03-31T23:51:36.188Z,91.63
2019-03-31T23:56:41.643Z,91.65
